sensor_id;sensor_type;location;lat;lon;timestamp;temperature;humidity
1021;DHT22;499;42.648;23.270;2023-02-20T00:01:30;9.40;24.60
1021;DHT22;499;42.648;23.270;2023-02-20T00:03:58;9.40;24.70
1021;DHT22;499;42.648;23.270;2023-02-20T00:06:26;9.40;24.90
1021;DHT22;499;42.648;23.270;2023-02-20T00:08:53;9.30;25.30
1021;DHT22;499;42.648;23.270;2023-02-20T00:11:20;9.30;25.60
1021;DHT22;499;42.648;23.270;2023-02-20T00:13:48;9.20;25.80
1021;DHT22;499;42.648;23.270;2023-02-20T00:16:15;9.10;26.40
1021;DHT22;499;42.648;23.270;2023-02-20T00:18:46;9.00;27.00
1021;DHT22;499;42.648;23.270;2023-02-20T00:21:13;9.00;27.20
1021;DHT22;499;42.648;23.270;2023-02-20T00:23:40;9.10;27.30
1021;DHT22;499;42.648;23.270;2023-02-20T00:26:08;9.00;27.20
1021;DHT22;499;42.648;23.270;2023-02-20T00:28:37;9.00;27.20
1021;DHT22;499;42.648;23.270;2023-02-20T00:31:05;8.90;27.30
1021;DHT22;499;42.648;23.270;2023-02-20T00:33:32;9.00;27.50
1021;DHT22;499;42.648;23.270;2023-02-20T00:36:00;8.90;27.40
1021;DHT22;499;42.648;23.270;2023-02-20T00:38:28;8.90;27.10
1021;DHT22;499;42.648;23.270;2023-02-20T00:40:55;8.90;27.10
1021;DHT22;499;42.648;23.270;2023-02-20T00:43:22;8.90;27.10
1021;DHT22;499;42.648;23.270;2023-02-20T00:45:49;8.90;27.10
1021;DHT22;499;42.648;23.270;2023-02-20T00:48:16;8.90;27.10
1021;DHT22;499;42.648;23.270;2023-02-20T00:50:43;8.90;26.70
1021;DHT22;499;42.648;23.270;2023-02-20T00:53:11;8.60;25.50
1021;DHT22;499;42.648;23.270;2023-02-20T00:55:39;8.90;23.40
1021;DHT22;499;42.648;23.270;2023-02-20T00:58:06;9.00;23.00
1021;DHT22;499;42.648;23.270;2023-02-20T01:00:33;9.10;22.70
1021;DHT22;499;42.648;23.270;2023-02-20T01:03:00;9.20;23.40
1021;DHT22;499;42.648;23.270;2023-02-20T01:05:27;9.10;23.40
1021;DHT22;499;42.648;23.270;2023-02-20T01:07:54;9.10;24.20
1021;DHT22;499;42.648;23.270;2023-02-20T01:10:23;9.00;25.30
1021;DHT22;499;42.648;23.270;2023-02-20T01:12:50;9.00;25.90
1021;DHT22;499;42.648;23.270;2023-02-20T01:15:17;8.90;26.80
1021;DHT22;499;42.648;23.270;2023-02-20T01:17:45;8.80;27.00
1021;DHT22;499;42.648;23.270;2023-02-20T01:20:12;8.70;27.80
1021;DHT22;499;42.648;23.270;2023-02-20T01:22:39;8.70;28.50
1021;DHT22;499;42.648;23.270;2023-02-20T01:25:07;8.70;28.80
1021;DHT22;499;42.648;23.270;2023-02-20T01:27:36;8.70;29.10
1021;DHT22;499;42.648;23.270;2023-02-20T01:30:03;8.60;29.40
1021;DHT22;499;42.648;23.270;2023-02-20T01:32:30;8.70;29.70
1021;DHT22;499;42.648;23.270;2023-02-20T01:34:57;8.70;29.50
1021;DHT22;499;42.648;23.270;2023-02-20T01:37:25;8.70;29.50
1021;DHT22;499;42.648;23.270;2023-02-20T01:39:52;8.80;29.60
1021;DHT22;499;42.648;23.270;2023-02-20T01:42:21;8.80;31.40
1021;DHT22;499;42.648;23.270;2023-02-20T01:44:50;8.80;31.30
1021;DHT22;499;42.648;23.270;2023-02-20T01:47:20;8.80;31.70
1021;DHT22;499;42.648;23.270;2023-02-20T01:49:50;8.80;32.20
1021;DHT22;499;42.648;23.270;2023-02-20T01:52:23;8.70;31.80
1021;DHT22;499;42.648;23.270;2023-02-20T01:54:55;8.70;32.30
1021;DHT22;499;42.648;23.270;2023-02-20T01:57:25;8.60;32.90
1021;DHT22;499;42.648;23.270;2023-02-20T01:59:58;8.60;33.50
1021;DHT22;499;42.648;23.270;2023-02-20T02:02:27;8.50;33.00
1021;DHT22;499;42.648;23.270;2023-02-20T02:04:56;8.60;32.60
1021;DHT22;499;42.648;23.270;2023-02-20T02:07:23;8.60;32.90
1021;DHT22;499;42.648;23.270;2023-02-20T02:09:54;8.50;33.10
1021;DHT22;499;42.648;23.270;2023-02-20T02:12:23;8.50;31.50
1021;DHT22;499;42.648;23.270;2023-02-20T02:14:50;8.40;30.60
1021;DHT22;499;42.648;23.270;2023-02-20T02:17:42;8.30;30.60
1021;DHT22;499;42.648;23.270;2023-02-20T02:24:01;8.20;30.90
1021;DHT22;499;42.648;23.270;2023-02-20T02:26:56;8.20;30.50
1021;DHT22;499;42.648;23.270;2023-02-20T02:36:18;7.90;30.40
1021;DHT22;499;42.648;23.270;2023-02-20T02:38:55;7.80;30.70
1021;DHT22;499;42.648;23.270;2023-02-20T02:41:32;7.80;30.10
1021;DHT22;499;42.648;23.270;2023-02-20T02:44:08;7.70;30.00
1021;DHT22;499;42.648;23.270;2023-02-20T02:46:40;7.70;29.60
1021;DHT22;499;42.648;23.270;2023-02-20T02:49:14;7.70;29.60
1021;DHT22;499;42.648;23.270;2023-02-20T02:51:45;7.70;29.70
1021;DHT22;499;42.648;23.270;2023-02-20T02:54:15;7.70;30.00
1021;DHT22;499;42.648;23.270;2023-02-20T02:56:46;7.70;30.10
1021;DHT22;499;42.648;23.270;2023-02-20T02:59:16;7.70;30.00
1021;DHT22;499;42.648;23.270;2023-02-20T03:01:47;7.70;30.20
1021;DHT22;499;42.648;23.270;2023-02-20T03:04:16;7.60;30.00
1021;DHT22;499;42.648;23.270;2023-02-20T03:06:52;7.60;30.00
1021;DHT22;499;42.648;23.270;2023-02-20T03:09:24;7.60;30.00
1021;DHT22;499;42.648;23.270;2023-02-20T03:11:53;7.60;30.00
1021;DHT22;499;42.648;23.270;2023-02-20T03:14:25;7.60;30.00
1021;DHT22;499;42.648;23.270;2023-02-20T03:17:16;7.50;30.00
1021;DHT22;499;42.648;23.270;2023-02-20T03:19:46;7.60;30.00
1021;DHT22;499;42.648;23.270;2023-02-20T03:22:18;7.50;30.70
1021;DHT22;499;42.648;23.270;2023-02-20T03:24:49;7.40;30.60
1021;DHT22;499;42.648;23.270;2023-02-20T03:27:26;7.40;30.70
1021;DHT22;499;42.648;23.270;2023-02-20T03:29:57;7.40;30.70
1021;DHT22;499;42.648;23.270;2023-02-20T03:32:26;7.40;30.80
1021;DHT22;499;42.648;23.270;2023-02-20T03:35:12;7.30;30.90
1021;DHT22;499;42.648;23.270;2023-02-20T03:38:01;7.30;30.80
1021;DHT22;499;42.648;23.270;2023-02-20T03:40:48;7.20;30.80
1021;DHT22;499;42.648;23.270;2023-02-20T03:43:34;7.30;30.80
1021;DHT22;499;42.648;23.270;2023-02-20T03:46:05;7.30;30.80
1021;DHT22;499;42.648;23.270;2023-02-20T03:48:40;7.20;30.40
1021;DHT22;499;42.648;23.270;2023-02-20T03:51:09;7.20;30.50
1021;DHT22;499;42.648;23.270;2023-02-20T03:53:38;7.20;31.10
1021;DHT22;499;42.648;23.270;2023-02-20T03:56:09;7.20;30.20
1021;DHT22;499;42.648;23.270;2023-02-20T03:58:41;7.20;30.20
1021;DHT22;499;42.648;23.270;2023-02-20T04:01:12;7.20;29.80
1021;DHT22;499;42.648;23.270;2023-02-20T04:03:44;7.20;29.80
1021;DHT22;499;42.648;23.270;2023-02-20T04:06:14;7.20;29.80
1021;DHT22;499;42.648;23.270;2023-02-20T04:08:45;7.30;29.40
1021;DHT22;499;42.648;23.270;2023-02-20T04:11:20;7.30;29.10
1021;DHT22;499;42.648;23.270;2023-02-20T04:13:50;7.40;28.70
1021;DHT22;499;42.648;23.270;2023-02-20T04:16:20;7.50;28.80
1021;DHT22;499;42.648;23.270;2023-02-20T04:18:47;7.50;28.80
1021;DHT22;499;42.648;23.270;2023-02-20T04:21:19;7.50;28.80
1021;DHT22;499;42.648;23.270;2023-02-20T04:23:51;7.50;28.80
1021;DHT22;499;42.648;23.270;2023-02-20T04:26:23;7.50;29.00
1021;DHT22;499;42.648;23.270;2023-02-20T04:28:50;7.50;28.60
1021;DHT22;499;42.648;23.270;2023-02-20T04:31:20;7.60;28.80
1021;DHT22;499;42.648;23.270;2023-02-20T04:33:47;7.60;28.70
1021;DHT22;499;42.648;23.270;2023-02-20T04:36:14;7.40;29.70
1021;DHT22;499;42.648;23.270;2023-02-20T04:38:41;7.40;28.30
1021;DHT22;499;42.648;23.270;2023-02-20T04:41:10;7.50;28.10
1021;DHT22;499;42.648;23.270;2023-02-20T04:43:37;7.40;27.90
1021;DHT22;499;42.648;23.270;2023-02-20T04:46:04;7.30;28.40
1021;DHT22;499;42.648;23.270;2023-02-20T04:48:31;7.30;28.20
1021;DHT22;499;42.648;23.270;2023-02-20T04:50:58;7.30;27.70
1021;DHT22;499;42.648;23.270;2023-02-20T04:53:25;7.30;27.80
1021;DHT22;499;42.648;23.270;2023-02-20T04:55:52;7.30;27.60
1021;DHT22;499;42.648;23.270;2023-02-20T04:58:21;7.30;27.30
1021;DHT22;499;42.648;23.270;2023-02-20T05:00:48;7.20;27.30
1021;DHT22;499;42.648;23.270;2023-02-20T05:03:15;7.20;27.00
1021;DHT22;499;42.648;23.270;2023-02-20T05:05:42;7.10;26.80
1021;DHT22;499;42.648;23.270;2023-02-20T05:08:09;7.10;27.40
1021;DHT22;499;42.648;23.270;2023-02-20T05:10:37;6.90;27.00
1021;DHT22;499;42.648;23.270;2023-02-20T05:13:04;6.80;26.80
1021;DHT22;499;42.648;23.270;2023-02-20T05:15:32;6.80;26.80
1021;DHT22;499;42.648;23.270;2023-02-20T05:18:00;6.70;27.00
1021;DHT22;499;42.648;23.270;2023-02-20T05:20:27;6.60;27.10
1021;DHT22;499;42.648;23.270;2023-02-20T05:23:08;6.60;27.50
1021;DHT22;499;42.648;23.270;2023-02-20T05:25:35;6.60;27.50
1021;DHT22;499;42.648;23.270;2023-02-20T05:28:02;6.60;27.70
1021;DHT22;499;42.648;23.270;2023-02-20T05:30:29;6.60;28.00
1021;DHT22;499;42.648;23.270;2023-02-20T05:32:58;6.60;28.30
1021;DHT22;499;42.648;23.270;2023-02-20T05:35:26;6.60;28.20
1021;DHT22;499;42.648;23.270;2023-02-20T05:37:53;6.60;28.50
1021;DHT22;499;42.648;23.270;2023-02-20T05:40:20;6.70;28.50
1021;DHT22;499;42.648;23.270;2023-02-20T05:42:47;6.70;28.70
1021;DHT22;499;42.648;23.270;2023-02-20T05:45:14;6.70;28.50
1021;DHT22;499;42.648;23.270;2023-02-20T05:47:41;6.70;28.50
1021;DHT22;499;42.648;23.270;2023-02-20T05:50:10;6.80;28.10
1021;DHT22;499;42.648;23.270;2023-02-20T05:52:37;6.80;27.30
1021;DHT22;499;42.648;23.270;2023-02-20T05:55:04;6.80;26.20
1021;DHT22;499;42.648;23.270;2023-02-20T05:57:32;7.00;25.50
1021;DHT22;499;42.648;23.270;2023-02-20T05:59:59;7.20;24.80
1021;DHT22;499;42.648;23.270;2023-02-20T06:02:26;7.30;24.10
1021;DHT22;499;42.648;23.270;2023-02-20T06:04:58;7.40;23.00
1021;DHT22;499;42.648;23.270;2023-02-20T06:07:26;7.50;22.50
1021;DHT22;499;42.648;23.270;2023-02-20T06:09:53;7.50;22.50
1021;DHT22;499;42.648;23.270;2023-02-20T06:12:20;7.50;22.40
1021;DHT22;499;42.648;23.270;2023-02-20T06:14:48;7.50;22.10
1021;DHT22;499;42.648;23.270;2023-02-20T06:17:15;7.50;22.40
1021;DHT22;499;42.648;23.270;2023-02-20T06:19:42;7.50;22.40
1021;DHT22;499;42.648;23.270;2023-02-20T06:22:09;7.50;22.40
1021;DHT22;499;42.648;23.270;2023-02-20T06:24:38;7.60;22.50
1021;DHT22;499;42.648;23.270;2023-02-20T06:27:05;7.60;22.20
1021;DHT22;499;42.648;23.270;2023-02-20T06:29:33;7.70;22.60
1021;DHT22;499;42.648;23.270;2023-02-20T06:32:00;7.80;22.60
1021;DHT22;499;42.648;23.270;2023-02-20T06:34:27;7.80;21.70
1021;DHT22;499;42.648;23.270;2023-02-20T06:36:56;7.80;22.60
1021;DHT22;499;42.648;23.270;2023-02-20T06:39:23;7.80;21.30
1021;DHT22;499;42.648;23.270;2023-02-20T06:41:51;7.90;21.40
1021;DHT22;499;42.648;23.270;2023-02-20T06:44:18;7.90;21.70
1021;DHT22;499;42.648;23.270;2023-02-20T06:46:46;7.90;21.80
1021;DHT22;499;42.648;23.270;2023-02-20T06:49:13;7.90;22.00
1021;DHT22;499;42.648;23.270;2023-02-20T06:51:40;7.90;22.70
1021;DHT22;499;42.648;23.270;2023-02-20T06:54:09;7.90;21.80
1021;DHT22;499;42.648;23.270;2023-02-20T06:56:37;7.80;22.40
1021;DHT22;499;42.648;23.270;2023-02-20T06:59:06;7.70;22.30
1021;DHT22;499;42.648;23.270;2023-02-20T07:01:38;7.80;22.50
1021;DHT22;499;42.648;23.270;2023-02-20T07:04:06;7.80;21.70
1021;DHT22;499;42.648;23.270;2023-02-20T07:06:33;7.80;21.60
1021;DHT22;499;42.648;23.270;2023-02-20T07:09:01;7.80;21.60
1021;DHT22;499;42.648;23.270;2023-02-20T07:11:28;7.90;21.60
1021;DHT22;499;42.648;23.270;2023-02-20T07:13:55;8.00;20.80
1021;DHT22;499;42.648;23.270;2023-02-20T07:16:24;8.10;20.40
1021;DHT22;499;42.648;23.270;2023-02-20T07:18:51;8.10;20.00
1021;DHT22;499;42.648;23.270;2023-02-20T07:21:18;8.30;19.70
1021;DHT22;499;42.648;23.270;2023-02-20T07:23:45;8.30;20.00
1021;DHT22;499;42.648;23.270;2023-02-20T07:26:17;8.10;20.20
1021;DHT22;499;42.648;23.270;2023-02-20T07:28:44;8.20;19.50
1021;DHT22;499;42.648;23.270;2023-02-20T07:31:11;8.20;19.20
1021;DHT22;499;42.648;23.270;2023-02-20T07:33:40;8.20;18.90
1021;DHT22;499;42.648;23.270;2023-02-20T07:36:09;8.20;19.00
1021;DHT22;499;42.648;23.270;2023-02-20T07:38:36;8.20;19.00
1021;DHT22;499;42.648;23.270;2023-02-20T07:41:03;8.10;19.40
1021;DHT22;499;42.648;23.270;2023-02-20T07:43:31;8.10;17.60
1021;DHT22;499;42.648;23.270;2023-02-20T07:45:58;8.20;18.80
1021;DHT22;499;42.648;23.270;2023-02-20T07:48:25;8.30;17.70
1021;DHT22;499;42.648;23.270;2023-02-20T07:50:54;8.40;17.60
1021;DHT22;499;42.648;23.270;2023-02-20T07:53:21;8.40;16.90
1021;DHT22;499;42.648;23.270;2023-02-20T07:55:48;8.40;16.60
1021;DHT22;499;42.648;23.270;2023-02-20T07:58:15;8.50;17.00
1021;DHT22;499;42.648;23.270;2023-02-20T08:00:42;8.40;15.80
1021;DHT22;499;42.648;23.270;2023-02-20T08:03:10;8.50;16.00
1021;DHT22;499;42.648;23.270;2023-02-20T08:05:37;8.40;15.30
1021;DHT22;499;42.648;23.270;2023-02-20T08:08:06;8.30;15.10
1021;DHT22;499;42.648;23.270;2023-02-20T08:10:33;8.50;15.00
1021;DHT22;499;42.648;23.270;2023-02-20T08:13:00;8.50;14.80
1021;DHT22;499;42.648;23.270;2023-02-20T08:15:27;8.50;14.80
1021;DHT22;499;42.648;23.270;2023-02-20T08:17:56;8.50;15.30
1021;DHT22;499;42.648;23.270;2023-02-20T08:20:23;8.60;15.30
1021;DHT22;499;42.648;23.270;2023-02-20T08:22:51;8.70;15.40
1021;DHT22;499;42.648;23.270;2023-02-20T08:25:20;8.60;15.20
1021;DHT22;499;42.648;23.270;2023-02-20T08:27:48;8.60;15.70
1021;DHT22;499;42.648;23.270;2023-02-20T08:30:19;8.60;15.30
1021;DHT22;499;42.648;23.270;2023-02-20T08:32:48;8.70;15.40
1021;DHT22;499;42.648;23.270;2023-02-20T08:35:17;8.80;15.40
1021;DHT22;499;42.648;23.270;2023-02-20T08:37:45;8.80;15.20
1021;DHT22;499;42.648;23.270;2023-02-20T08:40:12;8.90;14.50
1021;DHT22;499;42.648;23.270;2023-02-20T08:42:41;8.90;14.70
1021;DHT22;499;42.648;23.270;2023-02-20T08:45:09;9.00;14.40
1021;DHT22;499;42.648;23.270;2023-02-20T08:47:36;9.00;14.00
1021;DHT22;499;42.648;23.270;2023-02-20T08:50:04;9.00;14.40
1021;DHT22;499;42.648;23.270;2023-02-20T08:52:31;9.00;13.90
1021;DHT22;499;42.648;23.270;2023-02-20T08:54:58;9.00;13.30
1021;DHT22;499;42.648;23.270;2023-02-20T08:57:25;9.10;13.90
1021;DHT22;499;42.648;23.270;2023-02-20T08:59:54;9.20;13.50
1021;DHT22;499;42.648;23.270;2023-02-20T09:02:22;9.00;13.50
1021;DHT22;499;42.648;23.270;2023-02-20T09:04:53;8.90;13.20
1021;DHT22;499;42.648;23.270;2023-02-20T09:07:21;8.80;13.90
1021;DHT22;499;42.648;23.270;2023-02-20T09:09:48;8.90;14.30
1021;DHT22;499;42.648;23.270;2023-02-20T09:12:17;9.00;14.00
1021;DHT22;499;42.648;23.270;2023-02-20T09:14:44;8.90;14.10
1021;DHT22;499;42.648;23.270;2023-02-20T09:17:13;8.90;14.60
1021;DHT22;499;42.648;23.270;2023-02-20T09:19:40;8.90;15.00
1021;DHT22;499;42.648;23.270;2023-02-20T09:22:07;8.80;14.90
1021;DHT22;499;42.648;23.270;2023-02-20T09:24:34;9.00;15.30
1021;DHT22;499;42.648;23.270;2023-02-20T09:27:02;9.00;15.10
1021;DHT22;499;42.648;23.270;2023-02-20T09:29:31;9.10;15.60
1021;DHT22;499;42.648;23.270;2023-02-20T09:31:58;9.20;15.40
1021;DHT22;499;42.648;23.270;2023-02-20T09:34:26;9.20;15.10
1021;DHT22;499;42.648;23.270;2023-02-20T09:36:53;9.20;15.70
1021;DHT22;499;42.648;23.270;2023-02-20T09:39:20;9.50;15.80
1021;DHT22;499;42.648;23.270;2023-02-20T09:42:02;9.30;14.70
1021;DHT22;499;42.648;23.270;2023-02-20T09:44:38;9.30;15.20
1021;DHT22;499;42.648;23.270;2023-02-20T09:47:24;9.40;14.80
1021;DHT22;499;42.648;23.270;2023-02-20T09:49:56;9.50;14.60
1021;DHT22;499;42.648;23.270;2023-02-20T09:52:25;9.60;14.30
1021;DHT22;499;42.648;23.270;2023-02-20T09:54:57;9.50;14.50
1021;DHT22;499;42.648;23.270;2023-02-20T09:57:29;9.60;14.20
1021;DHT22;499;42.648;23.270;2023-02-20T10:00:02;9.60;12.30
1021;DHT22;499;42.648;23.270;2023-02-20T10:02:32;9.60;13.20
1021;DHT22;499;42.648;23.270;2023-02-20T10:05:05;9.60;13.20
1021;DHT22;499;42.648;23.270;2023-02-20T10:07:35;9.70;12.10
1021;DHT22;499;42.648;23.270;2023-02-20T10:10:17;9.60;11.20
1021;DHT22;499;42.648;23.270;2023-02-20T10:12:52;9.60;10.50
1021;DHT22;499;42.648;23.270;2023-02-20T10:15:24;9.60;11.00
1021;DHT22;499;42.648;23.270;2023-02-20T10:18:01;9.70;10.30
1021;DHT22;499;42.648;23.270;2023-02-20T10:20:38;9.70;10.20
1021;DHT22;499;42.648;23.270;2023-02-20T10:23:15;9.70;8.90
1021;DHT22;499;42.648;23.270;2023-02-20T10:25:47;9.70;9.90
1021;DHT22;499;42.648;23.270;2023-02-20T10:28:16;9.80;8.90
1021;DHT22;499;42.648;23.270;2023-02-20T10:30:46;9.60;9.10
1021;DHT22;499;42.648;23.270;2023-02-20T10:33:21;9.60;9.40
1021;DHT22;499;42.648;23.270;2023-02-20T10:35:56;9.80;8.70
1021;DHT22;499;42.648;23.270;2023-02-20T10:38:29;9.80;9.10
1021;DHT22;499;42.648;23.270;2023-02-20T10:41:03;9.90;9.50
1021;DHT22;499;42.648;23.270;2023-02-20T10:43:35;10.10;9.40
1021;DHT22;499;42.648;23.270;2023-02-20T10:46:08;10.20;7.60
1021;DHT22;499;42.648;23.270;2023-02-20T10:48:38;10.20;8.00
1021;DHT22;499;42.648;23.270;2023-02-20T10:51:11;10.00;7.50
1021;DHT22;499;42.648;23.270;2023-02-20T10:53:45;10.00;7.70
1021;DHT22;499;42.648;23.270;2023-02-20T10:56:17;10.00;8.30
1021;DHT22;499;42.648;23.270;2023-02-20T10:58:52;10.10;8.20
1021;DHT22;499;42.648;23.270;2023-02-20T11:01:24;10.20;8.50
1021;DHT22;499;42.648;23.270;2023-02-20T11:03:56;10.30;9.20
1021;DHT22;499;42.648;23.270;2023-02-20T11:06:30;10.40;7.70
1021;DHT22;499;42.648;23.270;2023-02-20T11:08:59;10.50;8.50
1021;DHT22;499;42.648;23.270;2023-02-20T11:11:31;10.50;9.50
1021;DHT22;499;42.648;23.270;2023-02-20T11:13:59;10.60;9.70
1021;DHT22;499;42.648;23.270;2023-02-20T11:16:30;10.60;9.20
1021;DHT22;499;42.648;23.270;2023-02-20T11:19:06;10.60;9.50
1021;DHT22;499;42.648;23.270;2023-02-20T11:21:37;10.70;9.20
1021;DHT22;499;42.648;23.270;2023-02-20T11:24:29;10.70;8.80
1021;DHT22;499;42.648;23.270;2023-02-20T11:27:00;10.80;9.10
1021;DHT22;499;42.648;23.270;2023-02-20T11:29:34;10.80;8.70
1021;DHT22;499;42.648;23.270;2023-02-20T11:32:22;10.70;9.10
1021;DHT22;499;42.648;23.270;2023-02-20T11:35:14;10.70;9.60
1021;DHT22;499;42.648;23.270;2023-02-20T11:37:49;10.80;9.70
1021;DHT22;499;42.648;23.270;2023-02-20T11:40:19;10.80;9.20
1021;DHT22;499;42.648;23.270;2023-02-20T11:42:48;10.80;9.20
1021;DHT22;499;42.648;23.270;2023-02-20T11:45:21;10.70;8.80
1021;DHT22;499;42.648;23.270;2023-02-20T11:48:06;10.60;9.10
1021;DHT22;499;42.648;23.270;2023-02-20T11:50:38;10.70;8.50
1021;DHT22;499;42.648;23.270;2023-02-20T11:53:18;10.60;8.60
1021;DHT22;499;42.648;23.270;2023-02-20T11:55:47;10.60;8.90
1021;DHT22;499;42.648;23.270;2023-02-20T11:58:21;10.70;8.70
1021;DHT22;499;42.648;23.270;2023-02-20T12:00:51;10.80;8.80
1021;DHT22;499;42.648;23.270;2023-02-20T12:03:20;11.00;8.30
1021;DHT22;499;42.648;23.270;2023-02-20T12:05:49;11.00;8.70
1021;DHT22;499;42.648;23.270;2023-02-20T12:08:48;11.10;8.20
1021;DHT22;499;42.648;23.270;2023-02-20T12:11:19;11.10;8.70
1021;DHT22;499;42.648;23.270;2023-02-20T12:13:48;11.20;8.80
1021;DHT22;499;42.648;23.270;2023-02-20T12:16:49;11.30;8.30
1021;DHT22;499;42.648;23.270;2023-02-20T12:19:23;11.20;7.70
1021;DHT22;499;42.648;23.270;2023-02-20T12:22:02;11.10;8.10
1021;DHT22;499;42.648;23.270;2023-02-20T12:24:49;11.10;8.50
1021;DHT22;499;42.648;23.270;2023-02-20T12:27:45;11.00;8.60
1021;DHT22;499;42.648;23.270;2023-02-20T12:33:28;10.90;8.50
1021;DHT22;499;42.648;23.270;2023-02-20T12:36:02;10.70;8.80
1021;DHT22;499;42.648;23.270;2023-02-20T12:38:39;10.80;9.20
1021;DHT22;499;42.648;23.270;2023-02-20T12:41:25;11.00;8.70
1021;DHT22;499;42.648;23.270;2023-02-20T12:44:08;11.10;8.90
1021;DHT22;499;42.648;23.270;2023-02-20T12:46:46;11.10;8.20
1021;DHT22;499;42.648;23.270;2023-02-20T12:49:30;11.10;8.50
1021;DHT22;499;42.648;23.270;2023-02-20T12:52:06;11.20;8.30
1021;DHT22;499;42.648;23.270;2023-02-20T12:54:38;10.90;8.80
1021;DHT22;499;42.648;23.270;2023-02-20T12:57:17;10.90;9.00
1021;DHT22;499;42.648;23.270;2023-02-20T12:59:51;11.00;9.00
1021;DHT22;499;42.648;23.270;2023-02-20T13:02:26;11.10;8.70
1021;DHT22;499;42.648;23.270;2023-02-20T13:04:57;11.00;8.60
1021;DHT22;499;42.648;23.270;2023-02-20T13:07:32;10.70;8.80
1021;DHT22;499;42.648;23.270;2023-02-20T13:10:05;10.80;9.10
1021;DHT22;499;42.648;23.270;2023-02-20T13:12:35;10.70;9.00
1021;DHT22;499;42.648;23.270;2023-02-20T13:15:24;10.80;9.20
1021;DHT22;499;42.648;23.270;2023-02-20T13:17:58;10.90;9.30
1021;DHT22;499;42.648;23.270;2023-02-20T13:20:31;11.00;9.50
1021;DHT22;499;42.648;23.270;2023-02-20T13:23:01;10.90;9.70
1021;DHT22;499;42.648;23.270;2023-02-20T13:25:38;11.00;9.60
1021;DHT22;499;42.648;23.270;2023-02-20T13:28:34;11.10;10.00
1021;DHT22;499;42.648;23.270;2023-02-20T13:31:13;11.00;9.80
1021;DHT22;499;42.648;23.270;2023-02-20T13:33:41;10.80;10.60
1021;DHT22;499;42.648;23.270;2023-02-20T13:36:16;10.80;10.30
1021;DHT22;499;42.648;23.270;2023-02-20T13:44:48;10.60;10.50
1021;DHT22;499;42.648;23.270;2023-02-20T13:47:36;10.30;10.70
1021;DHT22;499;42.648;23.270;2023-02-20T13:50:27;10.20;11.20
1021;DHT22;499;42.648;23.270;2023-02-20T13:52:55;10.20;11.60
1021;DHT22;499;42.648;23.270;2023-02-20T13:55:24;10.10;11.60
1021;DHT22;499;42.648;23.270;2023-02-20T13:57:53;10.10;11.50
1021;DHT22;499;42.648;23.270;2023-02-20T14:00:32;10.10;11.50
1021;DHT22;499;42.648;23.270;2023-02-20T14:03:09;10.20;11.60
1021;DHT22;499;42.648;23.270;2023-02-20T14:05:36;10.10;11.60
1021;DHT22;499;42.648;23.270;2023-02-20T14:08:10;10.00;11.50
1021;DHT22;499;42.648;23.270;2023-02-20T14:10:41;10.00;11.50
1021;DHT22;499;42.648;23.270;2023-02-20T14:13:14;10.00;11.50
1021;DHT22;499;42.648;23.270;2023-02-20T14:15:49;10.00;11.50
1021;DHT22;499;42.648;23.270;2023-02-20T14:18:18;10.00;11.80
1021;DHT22;499;42.648;23.270;2023-02-20T14:20:46;9.90;12.70
1021;DHT22;499;42.648;23.270;2023-02-20T14:23:21;9.90;13.30
1021;DHT22;499;42.648;23.270;2023-02-20T14:25:55;10.00;12.50
1021;DHT22;499;42.648;23.270;2023-02-20T14:28:22;10.00;12.30
1021;DHT22;499;42.648;23.270;2023-02-20T14:31:17;10.00;12.30
1021;DHT22;499;42.648;23.270;2023-02-20T14:33:46;10.00;12.10
1021;DHT22;499;42.648;23.270;2023-02-20T14:36:42;9.90;12.90
1021;DHT22;499;42.648;23.270;2023-02-20T14:39:23;9.90;13.40
1021;DHT22;499;42.648;23.270;2023-02-20T14:41:54;9.60;13.90
1021;DHT22;499;42.648;23.270;2023-02-20T14:44:21;9.50;13.70
1021;DHT22;499;42.648;23.270;2023-02-20T14:46:53;9.50;14.80
1021;DHT22;499;42.648;23.270;2023-02-20T14:49:26;9.40;14.00
1021;DHT22;499;42.648;23.270;2023-02-20T14:52:06;9.50;14.10
1021;DHT22;499;42.648;23.270;2023-02-20T14:54:39;9.50;14.10
1021;DHT22;499;42.648;23.270;2023-02-20T14:57:08;9.40;14.20
1021;DHT22;499;42.648;23.270;2023-02-20T14:59:38;9.30;14.30
1021;DHT22;499;42.648;23.270;2023-02-20T15:02:15;9.40;14.50
1021;DHT22;499;42.648;23.270;2023-02-20T15:04:47;9.30;14.40
1021;DHT22;499;42.648;23.270;2023-02-20T15:07:14;9.40;14.70
1021;DHT22;499;42.648;23.270;2023-02-20T15:09:44;9.40;14.60
1021;DHT22;499;42.648;23.270;2023-02-20T15:12:19;9.40;14.70
1021;DHT22;499;42.648;23.270;2023-02-20T15:14:53;9.40;14.70
1021;DHT22;499;42.648;23.270;2023-02-20T15:17:24;9.40;15.00
1021;DHT22;499;42.648;23.270;2023-02-20T15:19:52;9.50;14.80
1021;DHT22;499;42.648;23.270;2023-02-20T15:22:26;9.30;15.00
1021;DHT22;499;42.648;23.270;2023-02-20T15:24:53;9.20;15.70
1021;DHT22;499;42.648;23.270;2023-02-20T15:27:21;9.20;15.30
1021;DHT22;499;42.648;23.270;2023-02-20T15:30:11;9.20;15.30
1021;DHT22;499;42.648;23.270;2023-02-20T15:32:42;9.10;15.40
1021;DHT22;499;42.648;23.270;2023-02-20T15:35:14;9.00;15.60
1021;DHT22;499;42.648;23.270;2023-02-20T15:37:42;8.90;15.50
1021;DHT22;499;42.648;23.270;2023-02-20T15:40:19;9.00;15.60
1021;DHT22;499;42.648;23.270;2023-02-20T15:42:47;8.80;16.20
1021;DHT22;499;42.648;23.270;2023-02-20T15:45:14;8.80;16.30
1021;DHT22;499;42.648;23.270;2023-02-20T15:47:43;8.80;16.50
1021;DHT22;499;42.648;23.270;2023-02-20T15:50:10;8.70;16.90
1021;DHT22;499;42.648;23.270;2023-02-20T15:52:37;8.70;17.00
1021;DHT22;499;42.648;23.270;2023-02-20T15:55:05;8.70;17.00
1021;DHT22;499;42.648;23.270;2023-02-20T15:57:32;8.50;17.20
1021;DHT22;499;42.648;23.270;2023-02-20T16:00:00;8.40;17.40
1021;DHT22;499;42.648;23.270;2023-02-20T16:02:27;8.30;17.70
1021;DHT22;499;42.648;23.270;2023-02-20T16:04:55;8.20;17.80
1021;DHT22;499;42.648;23.270;2023-02-20T16:07:22;8.10;18.00
1021;DHT22;499;42.648;23.270;2023-02-20T16:09:49;8.10;18.00
1021;DHT22;499;42.648;23.270;2023-02-20T16:12:20;8.10;18.30
1021;DHT22;499;42.648;23.270;2023-02-20T16:14:48;8.10;18.30
1021;DHT22;499;42.648;23.270;2023-02-20T16:17:22;8.00;18.90
1021;DHT22;499;42.648;23.270;2023-02-20T16:19:50;7.90;18.80
1021;DHT22;499;42.648;23.270;2023-02-20T16:22:19;7.80;18.80
1021;DHT22;499;42.648;23.270;2023-02-20T16:24:47;7.80;18.80
1021;DHT22;499;42.648;23.270;2023-02-20T16:27:17;7.80;18.80
1021;DHT22;499;42.648;23.270;2023-02-20T16:29:44;7.70;18.70
1021;DHT22;499;42.648;23.270;2023-02-20T16:32:16;7.70;18.70
1021;DHT22;499;42.648;23.270;2023-02-20T16:34:44;7.70;18.70
1021;DHT22;499;42.648;23.270;2023-02-20T16:37:12;7.60;18.70
1021;DHT22;499;42.648;23.270;2023-02-20T16:39:41;7.60;18.70
1021;DHT22;499;42.648;23.270;2023-02-20T16:42:24;7.60;18.70
1021;DHT22;499;42.648;23.270;2023-02-20T16:44:53;7.60;18.90
1021;DHT22;499;42.648;23.270;2023-02-20T16:47:25;7.60;18.70
1021;DHT22;499;42.648;23.270;2023-02-20T16:49:53;7.60;18.70
1021;DHT22;499;42.648;23.270;2023-02-20T16:52:25;7.60;18.60
1021;DHT22;499;42.648;23.270;2023-02-20T16:54:54;7.60;18.60
1021;DHT22;499;42.648;23.270;2023-02-20T16:57:22;7.60;18.70
1021;DHT22;499;42.648;23.270;2023-02-20T16:59:50;7.60;18.60
1021;DHT22;499;42.648;23.270;2023-02-20T17:02:19;7.60;18.50